INDIA METEOROLOGICAL DEPARTMENT, R.M.C. NEW DELHI
Dated:25 - 3 - 2017
METARS


Ahmedabad  
VAAH 252130Z 23003KT 4000 FU NSC 26/10 Q1010 NOSIG=
Amritsar   
VIAR 252130Z 00000KT 4000 BR SCT100 17/17 Q1012 NOSIG=
Aurangabad 
VAAU 252100Z 34002KT 6000 NSC 26/17 Q1013 NOSIG=
Bangalore  
VOBL 252130Z 09003KT 6000 NSC 22/13 Q1016 NOSIG=
Bhubaneswar
VEBS 252100Z 22004KT 3000 HZ NSC 25/23 Q1009 BECMG 2000 HZ=
Chennai    
VOMM 252130Z 23004KT 6000 FEW020 25/22 Q1011 NOSIG=
Coimbatore 
VOCB 252130Z 18005KT 5000 BR FEW010 25/23 Q1013 NOSIG=
Colombo    
VCBI 252110Z 09003KT 6000 SKC 25/21 Q1009 NOSIG=
Delhi      
VIDP 252130Z 27003KT 3200 HZ NSC 23/13 Q1011 NOSIG=
Gauhati    
VEGT 252130Z NIL=
Gaya       
VEGY 252130Z NIL=
Goa        
VOGO 252000Z VRB03KT 6000 SCT020 SCT090 26/21 Q1010 NOSIG=
Hyderabad  
VOHS 252130Z VRB01KT 6000 NSC 26/15 Q1013 NOSIG =
Jaipur     
VIJP 252130Z 00000KT 3500 HZ NSC 25/08 Q1013 NOSIG=
Kochi      
VOCI 252130Z 00000KT 4000 HZ FEW015 27/24 Q1010 NOSIG=
Kolkata    
VECC 252130Z 16005KT 2800 HZ SCT020 26/23 Q1009 NOSIG=
Kozhikode  
VOCL 252130Z 00000KT 5000 HZ FEW015 27/25 Q1010 NOSIG=
Lucknow    
VILK 252030Z 00000KT 2500 HZ NSC 20/10 Q1009=
Madurai    
VOMD 252100Z 00000KT 6000 FEW020 26/21 Q1011 NOSIG=
Mumbai     
VABB 252130Z 33003KT 3500 HZ NSC 28/23 Q1010 NOSIG=
Nagpur     
VANP 252130Z 36002KT 4000 HZ NSC 26/10 Q1010 NOSIG=
Patna      
VEPT 252130Z NIL=
Trichy     
VOTR 252130Z VRB02KT 5000 BR NSC 24/21 Q1009 NOSIG=
Trivandrum 
VOTV 252130Z 14002KT 4000 HZ SCT015 SCT090 27/24 Q1008 NOSIG=
Male       
VRMM 252100Z VRB02KT 9999 FEW019 SCT290 28/24 Q1010 NOSIG=
Gan        
VRMG 252100Z VRB02KT 9999 FEW019 27/25 Q1010=
Kathmandu  
VNKT 252130Z NIL=
Dhaka      
VGHS 252130Z 05006KT 4000 HZ SCT100 20/17 Q1010 NOSIG=
Colombo    
VCBI 252110Z 09003KT 6000 SKC 25/21 Q1009 NOSIG=
Karachi    
OPKC 252125Z 26005KT 6000 NSC 25/17 Q1011 NOSIG=
Lahore     
OPLA 252125Z 29004KT 4000 FU NSC 21/13 Q1012 A29.88=
Jodhpur    
VIJO 252030Z VRB02KT 6000 SKC 28/11 Q1012 NOSIG=
Agra       
VIAG 252130Z VRBO2KT 6000 SKC 19/14 Q1011 NOSIG=
Pune       
VAPO 252130Z VRB02KT 6000 SKC 25/13 Q1014 NOSIG=